createdAt,value
2019-02-17T00:02:16.979Z,12.40
2019-02-17T00:04:46.249Z,12.73
2019-02-17T00:07:15.539Z,13.67
2019-02-17T00:09:44.840Z,12.63
2019-02-17T00:12:14.136Z,12.87
2019-02-17T00:14:43.439Z,12.90
2019-02-17T00:17:12.728Z,12.83
2019-02-17T00:19:42.028Z,13.87
2019-02-17T00:22:11.314Z,12.63
2019-02-17T00:24:40.675Z,12.83
2019-02-17T00:27:09.978Z,13.30
2019-02-17T00:29:39.267Z,13.43
2019-02-17T00:32:08.919Z,11.63
2019-02-17T00:34:38.434Z,12.00
2019-02-17T00:37:07.738Z,12.97
2019-02-17T00:39:37.134Z,11.97
2019-02-17T00:42:06.418Z,13.10
2019-02-17T00:44:38.430Z,11.73
2019-02-17T00:47:07.714Z,12.03
2019-02-17T00:49:36.996Z,12.07
2019-02-17T00:52:06.371Z,11.47
2019-02-17T00:54:35.703Z,12.10
2019-02-17T00:57:04.993Z,12.43
2019-02-17T00:59:34.307Z,12.43
2019-02-17T01:02:03.618Z,12.13
2019-02-17T01:04:32.916Z,13.50
2019-02-17T01:07:02.295Z,13.67
2019-02-17T01:09:31.627Z,12.60
2019-02-17T01:12:00.900Z,12.97
2019-02-17T01:14:30.641Z,12.37
2019-02-17T01:16:59.891Z,12.67
2019-02-17T01:19:29.186Z,13.20
2019-02-17T01:21:58.488Z,13.65
2019-02-17T01:24:27.770Z,12.57
2019-02-17T01:26:57.043Z,12.73
2019-02-17T01:29:26.418Z,12.43
2019-02-17T01:31:55.730Z,12.53
2019-02-17T01:34:25.077Z,12.70
2019-02-17T01:36:54.393Z,12.97
2019-02-17T01:39:23.691Z,12.63
2019-02-17T01:41:52.952Z,13.37
2019-02-17T01:44:22.302Z,12.40
2019-02-17T01:46:52.600Z,12.87
2019-02-17T01:49:21.847Z,13.37
2019-02-17T01:51:51.179Z,12.93
2019-02-17T01:54:20.453Z,13.00
2019-02-17T01:56:49.801Z,13.40
2019-02-17T01:59:19.067Z,12.73
2019-02-17T02:01:48.397Z,12.90
2019-02-17T02:04:17.725Z,13.10
2019-02-17T02:06:47.024Z,11.97
2019-02-17T02:09:16.309Z,11.80
2019-02-17T02:11:45.655Z,12.80
2019-02-17T02:14:14.962Z,13.60
2019-02-17T02:16:44.250Z,13.23
2019-02-17T02:19:13.514Z,11.80
2019-02-17T02:21:42.831Z,12.23
2019-02-17T02:24:12.146Z,12.40
2019-02-17T02:26:41.424Z,12.80
2019-02-17T02:29:10.745Z,11.57
2019-02-17T02:31:40.015Z,11.77
2019-02-17T02:34:09.304Z,13.22
2019-02-17T02:36:38.598Z,12.27
2019-02-17T02:39:08.143Z,12.00
2019-02-17T02:41:37.418Z,13.47
2019-02-17T02:44:06.713Z,13.27
2019-02-17T02:46:36.054Z,13.10
2019-02-17T02:49:05.323Z,13.23
2019-02-17T02:51:34.639Z,13.00
2019-02-17T02:54:03.981Z,12.90
2019-02-17T02:56:33.310Z,12.90
2019-02-17T02:59:02.591Z,12.47
2019-02-17T03:01:31.858Z,12.10
2019-02-17T03:04:01.107Z,13.03
2019-02-17T03:06:39.672Z,13.50
2019-02-17T03:09:08.943Z,13.97
2019-02-17T03:11:38.218Z,13.03
2019-02-17T03:14:07.495Z,12.67
2019-02-17T03:16:36.787Z,13.07
2019-02-17T03:19:06.051Z,13.37
2019-02-17T03:21:35.330Z,12.57
2019-02-17T03:24:04.587Z,12.87
2019-02-17T03:26:33.841Z,13.70
2019-02-17T03:29:03.097Z,13.43
2019-02-17T03:31:32.332Z,13.63
2019-02-17T03:34:01.586Z,13.47
2019-02-17T03:36:30.879Z,14.60
2019-02-17T03:39:00.147Z,14.30
2019-02-17T03:41:29.414Z,14.00
2019-02-17T03:43:58.697Z,14.20
2019-02-17T03:46:28.054Z,13.03
2019-02-17T03:48:57.335Z,12.73
2019-02-17T03:51:26.688Z,12.90
2019-02-17T03:53:55.959Z,12.77
2019-02-17T03:56:25.254Z,12.93
2019-02-17T03:58:54.538Z,13.07
2019-02-17T04:01:23.850Z,13.50
2019-02-17T04:03:53.166Z,13.50
2019-02-17T04:06:22.465Z,13.17
2019-02-17T04:08:51.746Z,12.70
2019-02-17T04:11:21.079Z,12.20
2019-02-17T04:13:50.327Z,13.10
2019-02-17T04:16:19.654Z,12.73
2019-02-17T04:18:49.012Z,12.63
2019-02-17T04:21:18.337Z,13.30
2019-02-17T04:23:47.631Z,12.67
2019-02-17T04:26:16.985Z,12.87
2019-02-17T04:28:46.252Z,12.97
2019-02-17T04:31:15.509Z,13.40
2019-02-17T04:33:44.784Z,13.00
2019-02-17T04:36:14.064Z,12.97
2019-02-17T04:38:43.334Z,12.63
2019-02-17T04:41:12.610Z,14.17
2019-02-17T04:43:41.847Z,13.03
2019-02-17T04:46:11.670Z,14.33
2019-02-17T04:48:40.982Z,13.93
2019-02-17T04:51:10.159Z,14.33
2019-02-17T04:53:39.458Z,14.80
2019-02-17T04:56:08.700Z,15.17
2019-02-17T04:58:38.017Z,12.50
2019-02-17T05:01:07.304Z,14.07
2019-02-17T05:03:36.583Z,13.57
2019-02-17T05:06:05.931Z,13.50
2019-02-17T05:08:35.556Z,13.27
2019-02-17T05:11:04.840Z,12.87
2019-02-17T05:13:34.139Z,14.10
2019-02-17T05:16:03.455Z,13.70
2019-02-17T05:18:32.767Z,13.93
2019-02-17T05:21:02.055Z,14.70
2019-02-17T05:23:31.347Z,13.93
2019-02-17T05:26:00.719Z,14.63
2019-02-17T05:28:30.028Z,13.43
2019-02-17T05:30:59.316Z,14.50
2019-02-17T05:33:28.612Z,13.63
2019-02-17T05:35:58.173Z,13.77
2019-02-17T05:38:27.575Z,14.00
2019-02-17T05:40:56.849Z,13.80
2019-02-17T05:43:26.161Z,13.67
2019-02-17T05:45:55.421Z,13.67
2019-02-17T05:48:24.702Z,13.53
2019-02-17T05:50:54.015Z,13.37
2019-02-17T05:53:23.336Z,15.03
2019-02-17T05:55:52.930Z,15.03
2019-02-17T05:58:22.223Z,15.30
2019-02-17T06:00:51.613Z,15.57
2019-02-17T06:03:20.826Z,15.67
2019-02-17T06:05:50.116Z,16.17
2019-02-17T06:08:19.404Z,14.70
2019-02-17T06:10:48.643Z,15.57
2019-02-17T06:13:17.912Z,14.90
2019-02-17T06:15:47.167Z,15.60
2019-02-17T06:18:16.644Z,16.07
2019-02-17T06:20:45.959Z,15.87
2019-02-17T06:23:15.213Z,15.03
2019-02-17T06:25:44.466Z,15.43
2019-02-17T06:28:13.770Z,15.27
2019-02-17T06:30:43.030Z,16.13
2019-02-17T06:33:11.767Z,15.43
2019-02-17T06:35:40.488Z,16.47
2019-02-17T06:38:09.221Z,15.60
2019-02-17T06:40:37.996Z,16.17
2019-02-17T06:43:06.776Z,15.50
2019-02-17T06:45:35.480Z,15.87
2019-02-17T06:48:04.258Z,15.77
2019-02-17T06:50:33.021Z,16.43
2019-02-17T06:53:01.823Z,15.67
2019-02-17T06:55:41.550Z,15.23
2019-02-17T06:58:10.248Z,16.33
2019-02-17T07:00:41.455Z,15.47
2019-02-17T07:03:10.166Z,15.43
2019-02-17T07:06:07.216Z,16.00
2019-02-17T07:08:35.985Z,15.87
2019-02-17T07:11:04.751Z,15.47
2019-02-17T07:13:33.902Z,16.02
2019-02-17T07:16:02.620Z,16.20
2019-02-17T07:18:31.358Z,17.73
2019-02-17T07:21:00.223Z,17.05
2019-02-17T07:23:29.525Z,17.33
2019-02-17T07:25:58.822Z,17.00
2019-02-17T07:28:28.194Z,16.50
2019-02-17T07:30:57.517Z,16.47
2019-02-17T07:33:27.848Z,16.13
2019-02-17T07:35:57.180Z,16.30
2019-02-17T07:41:01.420Z,16.37
2019-02-17T07:43:30.738Z,15.43
2019-02-17T07:46:00.124Z,16.20
2019-02-17T07:48:29.535Z,16.53
2019-02-17T07:50:58.827Z,16.70
2019-02-17T07:53:28.349Z,15.87
2019-02-17T07:55:57.684Z,16.10
2019-02-17T07:58:26.982Z,15.93
2019-02-17T08:00:56.336Z,16.27
2019-02-17T08:03:25.660Z,16.13
2019-02-17T08:05:54.965Z,15.90
2019-02-17T08:08:24.269Z,17.12
2019-02-17T08:11:03.440Z,15.47
2019-02-17T08:13:24.543Z,15.73
2019-02-17T08:15:54.113Z,15.03
2019-02-17T08:18:23.387Z,15.70
2019-02-17T08:20:52.702Z,15.17
2019-02-17T08:23:22.094Z,15.33
2019-02-17T08:25:51.438Z,15.03
2019-02-17T08:28:20.743Z,15.87
2019-02-17T08:30:50.054Z,14.40
2019-02-17T08:33:19.537Z,14.93
2019-02-17T08:35:48.892Z,14.33
2019-02-17T08:38:22.785Z,14.87
2019-02-17T08:40:52.076Z,14.70
2019-02-17T08:43:21.392Z,14.47
2019-02-17T08:45:50.699Z,14.90
2019-02-17T08:48:20.115Z,13.90
2019-02-17T08:50:49.403Z,14.87
2019-02-17T08:53:18.738Z,14.53
2019-02-17T08:55:48.223Z,15.00
2019-02-17T08:58:17.679Z,16.33
2019-02-17T09:00:46.979Z,13.70
2019-02-17T09:03:16.259Z,13.40
2019-02-17T09:05:45.577Z,13.23
2019-02-17T09:08:14.982Z,13.30
2019-02-17T09:10:44.266Z,13.07
2019-02-17T09:13:13.609Z,13.57
2019-02-17T09:15:42.914Z,12.40
2019-02-17T09:18:12.258Z,12.40
2019-02-17T09:20:41.568Z,12.80
2019-02-17T09:23:10.864Z,13.90
2019-02-17T09:25:40.143Z,15.17
2019-02-17T09:28:09.534Z,12.27
2019-02-17T09:30:38.856Z,11.97
2019-02-17T09:33:08.200Z,12.20
2019-02-17T09:35:37.562Z,12.53
2019-02-17T09:38:07.726Z,12.03
2019-02-17T09:40:37.067Z,11.87
2019-02-17T09:43:06.346Z,11.90
2019-02-17T09:45:35.749Z,11.50
2019-02-17T09:48:05.057Z,12.27
2019-02-17T09:50:34.370Z,12.13
2019-02-17T09:53:04.262Z,11.90
2019-02-17T09:55:33.629Z,11.40
2019-02-17T09:58:03.017Z,12.60
2019-02-17T10:00:32.364Z,12.23
2019-02-17T10:03:01.756Z,11.20
2019-02-17T10:05:31.170Z,11.03
2019-02-17T10:08:00.482Z,11.03
2019-02-17T10:10:29.773Z,11.63
2019-02-17T10:13:01.297Z,10.30
2019-02-17T10:15:30.502Z,10.77
2019-02-17T10:17:59.840Z,10.90
2019-02-17T10:20:29.188Z,11.07
2019-02-17T10:22:58.492Z,9.97
2019-02-17T10:25:27.834Z,10.57
2019-02-17T10:27:57.178Z,10.57
2019-02-17T10:30:26.503Z,10.47
2019-02-17T10:32:55.830Z,11.07
2019-02-17T10:35:25.155Z,10.65
2019-02-17T10:37:54.467Z,11.20
2019-02-17T10:40:23.758Z,10.37
2019-02-17T10:42:53.051Z,10.17
2019-02-17T10:45:22.322Z,10.33
2019-02-17T10:47:51.658Z,10.70
2019-02-17T10:50:20.977Z,11.10
2019-02-17T10:52:50.401Z,10.07
2019-02-17T10:55:19.692Z,11.07
2019-02-17T10:57:49.028Z,10.33
2019-02-17T11:00:18.494Z,11.23
2019-02-17T11:02:48.124Z,10.50
2019-02-17T11:05:17.597Z,10.27
2019-02-17T11:07:46.897Z,9.80
2019-02-17T11:10:16.275Z,9.97
2019-02-17T11:12:45.618Z,9.37
2019-02-17T11:15:17.005Z,10.90
2019-02-17T11:17:46.345Z,11.55
2019-02-17T11:20:15.670Z,10.90
2019-02-17T11:22:44.949Z,10.47
2019-02-17T11:25:14.270Z,10.17
2019-02-17T11:27:43.647Z,11.30
2019-02-17T11:30:14.060Z,9.60
2019-02-17T11:32:43.408Z,9.57
2019-02-17T11:35:12.746Z,9.57
2019-02-17T11:37:42.064Z,9.63
2019-02-17T11:40:11.969Z,24.10
2019-02-17T11:42:41.406Z,9.53
2019-02-17T11:45:13.067Z,9.80
2019-02-17T11:47:42.453Z,9.27
2019-02-17T11:50:11.764Z,9.20
2019-02-17T11:52:41.503Z,9.23
2019-02-17T11:55:12.188Z,8.90
2019-02-17T11:57:41.744Z,9.37
2019-02-17T12:00:14.553Z,9.47
2019-02-17T12:02:43.929Z,9.53
2019-02-17T12:05:13.892Z,9.30
2019-02-17T12:07:43.234Z,9.97
2019-02-17T12:10:12.594Z,9.57
2019-02-17T12:12:42.045Z,8.90
2019-02-17T12:15:13.285Z,9.40
2019-02-17T12:17:42.667Z,9.00
2019-02-17T12:20:33.848Z,9.43
2019-02-17T12:23:07.706Z,8.30
2019-02-17T12:25:45.563Z,8.57
2019-02-17T12:28:21.861Z,8.70
2019-02-17T12:30:51.927Z,7.63
2019-02-17T12:33:21.986Z,9.00
2019-02-17T12:35:51.535Z,8.60
2019-02-17T12:38:20.889Z,8.43
2019-02-17T12:40:50.218Z,8.63
2019-02-17T12:43:19.600Z,9.20
2019-02-17T12:45:49.038Z,8.90
2019-02-17T12:48:18.363Z,8.23
2019-02-17T12:50:47.704Z,8.60
2019-02-17T12:53:17.238Z,8.17
2019-02-17T12:55:46.618Z,7.90
2019-02-17T12:58:15.909Z,7.77
2019-02-17T13:00:45.274Z,7.83
2019-02-17T13:03:14.597Z,8.50
2019-02-17T13:05:43.938Z,7.70
2019-02-17T13:08:13.287Z,7.77
2019-02-17T13:10:42.647Z,7.70
2019-02-17T13:13:12.192Z,7.70
2019-02-17T13:15:41.532Z,8.67
2019-02-17T13:18:10.902Z,8.63
2019-02-17T13:20:40.232Z,7.90
2019-02-17T13:23:09.732Z,8.13
2019-02-17T13:25:39.278Z,7.90
2019-02-17T13:28:08.632Z,8.70
2019-02-17T13:30:37.972Z,8.50
2019-02-17T13:33:07.352Z,8.20
2019-02-17T13:35:36.679Z,8.27
2019-02-17T13:38:06.097Z,8.47
2019-02-17T13:40:35.431Z,8.67
2019-02-17T13:43:05.278Z,7.80
2019-02-17T13:45:35.678Z,8.10
2019-02-17T13:48:05.038Z,8.30
2019-02-17T13:50:34.393Z,7.83
2019-02-17T13:53:11.421Z,7.60
2019-02-17T13:55:34.821Z,8.50
2019-02-17T13:58:04.179Z,7.97
2019-02-17T14:00:33.868Z,8.70
2019-02-17T14:03:04.577Z,8.95
2019-02-17T14:05:34.106Z,8.45
2019-02-17T14:08:03.564Z,7.57
2019-02-17T14:10:32.976Z,7.60
2019-02-17T14:13:02.361Z,8.30
2019-02-17T14:15:31.775Z,8.10
2019-02-17T14:18:01.119Z,8.33
2019-02-17T14:20:30.577Z,7.50
2019-02-17T14:22:59.946Z,7.73
2019-02-17T14:25:29.274Z,7.60
2019-02-17T14:27:59.825Z,7.53
2019-02-17T14:30:30.433Z,7.80
2019-02-17T14:33:00.059Z,7.57
2019-02-17T14:35:29.476Z,7.23
2019-02-17T14:37:58.902Z,7.60
2019-02-17T14:40:28.324Z,7.90
2019-02-17T14:42:57.639Z,6.93
2019-02-17T14:48:01.863Z,7.27
2019-02-17T14:50:31.228Z,7.20
2019-02-17T14:53:00.571Z,7.27
2019-02-17T14:55:33.369Z,7.13
2019-02-17T14:58:05.358Z,7.27
2019-02-17T15:00:33.916Z,7.63
2019-02-17T15:03:03.213Z,6.77
2019-02-17T15:05:32.604Z,7.27
2019-02-17T15:08:20.469Z,6.53
2019-02-17T15:21:40.951Z,6.90
2019-02-17T15:24:12.382Z,6.70
2019-02-17T15:26:41.785Z,6.20
2019-02-17T15:29:15.153Z,6.47
2019-02-17T15:31:47.129Z,7.13
2019-02-17T15:34:18.930Z,6.63
2019-02-17T15:36:53.386Z,6.03
2019-02-17T15:39:23.115Z,6.43
2019-02-17T15:41:52.519Z,7.17
2019-02-17T15:44:21.946Z,6.23
2019-02-17T15:46:51.376Z,6.40
2019-02-17T15:49:20.746Z,6.30
2019-02-17T15:51:53.057Z,6.57
2019-02-17T15:54:22.438Z,6.30
2019-02-17T15:56:53.799Z,6.17
2019-02-17T15:59:22.851Z,5.93
2019-02-17T16:01:52.277Z,5.90
2019-02-17T16:04:28.152Z,6.10
2019-02-17T16:06:52.701Z,5.50
2019-02-17T16:09:22.095Z,6.20
2019-02-17T16:11:55.574Z,5.87
2019-02-17T16:14:25.530Z,5.87
2019-02-17T16:16:56.719Z,5.90
2019-02-17T16:19:26.097Z,6.00
2019-02-17T16:21:58.355Z,5.60
2019-02-17T16:24:27.784Z,5.77
2019-02-17T16:26:57.169Z,6.10
2019-02-17T16:29:26.526Z,5.63
2019-02-17T16:31:55.978Z,5.70
2019-02-17T16:34:25.389Z,5.77
2019-02-17T16:36:54.721Z,5.50
2019-02-17T16:39:24.094Z,5.00
2019-02-17T16:41:53.480Z,5.20
2019-02-17T16:44:22.967Z,5.30
2019-02-17T16:46:52.316Z,5.10
2019-02-17T16:49:21.615Z,5.07
2019-02-17T16:51:54.249Z,4.97
2019-02-17T16:54:23.594Z,5.00
2019-02-17T16:56:53.426Z,4.90
2019-02-17T16:59:22.793Z,5.07
2019-02-17T17:01:52.166Z,5.40
2019-02-17T17:04:21.512Z,5.33
2019-02-17T17:06:50.935Z,5.03
2019-02-17T17:09:20.395Z,5.10
2019-02-17T17:11:50.104Z,5.03
2019-02-17T17:14:19.443Z,4.43
2019-02-17T17:16:48.876Z,4.60
2019-02-17T17:19:18.201Z,4.67
2019-02-17T17:21:47.593Z,4.60
2019-02-17T17:24:17.367Z,5.07
2019-02-17T17:26:46.759Z,4.80
2019-02-17T17:29:16.158Z,4.57
2019-02-17T17:31:45.604Z,4.90
2019-02-17T17:34:14.918Z,4.75
2019-02-17T17:36:44.297Z,5.03
2019-02-17T17:39:13.950Z,5.43
2019-02-17T17:41:43.746Z,4.97
2019-02-17T17:44:13.093Z,5.40
2019-02-17T17:46:42.534Z,5.40
2019-02-17T17:49:19.058Z,5.20
2019-02-17T17:51:43.181Z,5.23
2019-02-17T17:54:12.514Z,4.97
2019-02-17T17:56:41.907Z,5.10
2019-02-17T17:59:11.367Z,5.90
2019-02-17T18:01:40.656Z,5.83
2019-02-17T18:04:10.068Z,6.93
2019-02-17T18:06:39.455Z,6.53
2019-02-17T18:09:08.957Z,6.40
2019-02-17T18:11:38.454Z,7.03
2019-02-17T18:14:07.803Z,7.30
2019-02-17T18:16:37.179Z,5.70
2019-02-17T18:19:06.939Z,5.20
2019-02-17T18:21:36.377Z,5.40
2019-02-17T18:24:05.887Z,5.57
2019-02-17T18:26:35.309Z,5.90
2019-02-17T18:29:04.698Z,6.07
2019-02-17T18:31:41.397Z,6.00
2019-02-17T18:34:11.403Z,5.67
2019-02-17T18:36:40.766Z,5.77
2019-02-17T18:39:10.600Z,5.07
2019-02-17T18:41:40.108Z,5.63
2019-02-17T18:44:09.469Z,6.27
2019-02-17T18:46:38.845Z,11.97
2019-02-17T18:49:08.239Z,11.67
2019-02-17T18:51:37.570Z,9.90
2019-02-17T18:54:06.993Z,8.07
2019-02-17T18:56:36.360Z,7.30
2019-02-17T18:59:05.842Z,8.43
2019-02-17T19:01:35.181Z,7.47
2019-02-17T19:04:04.872Z,7.33
2019-02-17T19:06:34.298Z,6.97
2019-02-17T19:09:04.813Z,6.90
2019-02-17T19:11:34.229Z,7.23
2019-02-17T19:14:03.691Z,6.83
2019-02-17T19:16:33.010Z,7.00
2019-02-17T19:19:02.336Z,7.03
2019-02-17T19:21:31.946Z,7.37
2019-02-17T19:24:01.391Z,7.07
2019-02-17T19:26:30.766Z,7.10
2019-02-17T19:29:00.283Z,6.23
2019-02-17T19:31:29.564Z,6.80
2019-02-17T19:33:59.018Z,6.37
2019-02-17T19:36:28.361Z,7.07
2019-02-17T19:38:57.983Z,6.63
2019-02-17T19:41:27.342Z,6.80
2019-02-17T19:43:56.647Z,7.27
2019-02-17T19:46:26.003Z,6.87
2019-02-17T19:48:55.367Z,6.43
2019-02-17T19:51:24.713Z,6.27
2019-02-17T19:53:54.418Z,6.93
2019-02-17T19:56:23.713Z,6.63
2019-02-17T19:58:53.096Z,6.70
2019-02-17T20:01:22.747Z,7.20
2019-02-17T20:04:23.382Z,7.77
2019-02-17T20:06:52.778Z,7.03
2019-02-17T20:09:22.124Z,7.20
2019-02-17T20:11:52.330Z,7.07
2019-02-17T20:14:21.889Z,7.07
2019-02-17T20:16:51.328Z,7.50
2019-02-17T20:19:21.122Z,6.77
2019-02-17T20:21:50.520Z,7.73
2019-02-17T20:24:19.964Z,7.40
2019-02-17T20:26:50.427Z,6.37
2019-02-17T20:29:19.852Z,7.03
2019-02-17T20:31:49.187Z,7.37
2019-02-17T20:34:18.555Z,7.57
2019-02-17T20:36:48.024Z,7.20
2019-02-17T20:39:17.518Z,7.50
2019-02-17T20:41:46.931Z,8.47
2019-02-17T20:44:16.582Z,7.27
2019-02-17T20:46:45.937Z,7.63
2019-02-17T20:49:15.317Z,7.30
2019-02-17T20:51:44.817Z,7.43
2019-02-17T20:54:14.143Z,7.10
2019-02-17T20:56:43.548Z,6.70
2019-02-17T20:59:12.911Z,7.03
2019-02-17T21:01:42.337Z,6.80
2019-02-17T21:04:11.709Z,7.23
2019-02-17T21:06:41.125Z,6.87
2019-02-17T21:09:10.716Z,6.97
2019-02-17T21:11:40.109Z,7.00
2019-02-17T21:14:09.459Z,7.50
2019-02-17T21:16:38.982Z,7.67
2019-02-17T21:19:08.407Z,7.87
2019-02-17T21:21:40.950Z,7.90
2019-02-17T21:24:10.740Z,7.43
2019-02-17T21:26:40.348Z,7.50
2019-02-17T21:29:09.991Z,8.30
2019-02-17T21:31:39.558Z,6.77
2019-02-17T21:34:09.254Z,7.13
2019-02-17T21:36:38.716Z,8.00
2019-02-17T21:39:08.717Z,8.13
2019-02-17T21:41:38.334Z,7.67
2019-02-17T21:44:08.352Z,8.30
2019-02-17T21:46:37.687Z,8.83
2019-02-17T21:49:07.021Z,8.50
2019-02-17T21:51:36.403Z,8.37
2019-02-17T21:54:06.041Z,8.53
2019-02-17T21:56:37.460Z,8.17
2019-02-17T21:59:10.328Z,8.50
2019-02-17T22:01:39.636Z,8.43
2019-02-17T22:04:09.084Z,8.67
2019-02-17T22:06:38.434Z,8.77
2019-02-17T22:09:07.990Z,8.60
2019-02-17T22:11:37.340Z,9.63
2019-02-17T22:14:06.754Z,8.50
2019-02-17T22:16:36.112Z,8.63
2019-02-17T22:19:05.441Z,11.57
2019-02-17T22:21:34.769Z,8.57
2019-02-17T22:24:04.103Z,8.93
2019-02-17T22:26:33.500Z,8.93
2019-02-17T22:29:02.855Z,9.60
2019-02-17T22:31:32.155Z,10.67
2019-02-17T22:34:01.484Z,12.17
2019-02-17T22:36:30.866Z,11.27
2019-02-17T22:39:00.171Z,10.27
2019-02-17T22:41:29.720Z,10.07
2019-02-17T22:43:59.090Z,9.60
2019-02-17T22:46:28.404Z,10.10
2019-02-17T22:48:57.947Z,11.30
2019-02-17T22:51:27.271Z,10.70
2019-02-17T22:53:56.602Z,10.40
2019-02-17T22:56:25.967Z,10.30
2019-02-17T22:58:55.299Z,11.97
2019-02-17T23:01:28.962Z,10.70
2019-02-17T23:03:58.360Z,10.80
2019-02-17T23:06:27.747Z,10.27
2019-02-17T23:08:57.145Z,10.10
2019-02-17T23:11:26.453Z,10.60
2019-02-17T23:13:55.747Z,9.93
2019-02-17T23:16:25.082Z,10.73
2019-02-17T23:18:54.391Z,9.67
2019-02-17T23:21:23.778Z,9.27
2019-02-17T23:23:53.041Z,8.63
2019-02-17T23:26:22.325Z,8.27
2019-02-17T23:28:51.607Z,9.17
2019-02-17T23:31:20.969Z,9.23
2019-02-17T23:33:50.266Z,8.20
2019-02-17T23:36:19.556Z,8.07
2019-02-17T23:38:48.928Z,8.33
2019-02-17T23:41:18.302Z,8.60
2019-02-17T23:43:47.595Z,8.57
2019-02-17T23:46:16.979Z,8.88
2019-02-17T23:48:46.296Z,8.73
2019-02-17T23:51:15.573Z,10.37
2019-02-17T23:53:44.912Z,8.37
2019-02-17T23:56:14.233Z,9.03
2019-02-17T23:58:46.498Z,8.30
